createdAt,value
2023-06-06T00:00:43.205Z,1.90
2023-06-06T00:05:46.157Z,1.80
2023-06-06T00:10:48.547Z,1.73
2023-06-06T00:15:50.992Z,1.67
2023-06-06T00:20:55.574Z,1.58
2023-06-06T00:25:57.973Z,1.52
2023-06-06T00:31:01.597Z,1.13
2023-06-06T00:36:05.345Z,1.58
2023-06-06T00:41:08.010Z,1.60
2023-06-06T00:46:13.551Z,1.30
2023-06-06T00:51:16.494Z,1.50
2023-06-06T00:56:21.263Z,1.83
2023-06-06T01:01:25.060Z,1.85
2023-06-06T01:06:35.435Z,1.45
2023-06-06T01:12:00.127Z,1.38
2023-06-06T01:17:05.237Z,1.27
2023-06-06T01:22:07.560Z,1.65
2023-06-06T01:27:11.759Z,1.20
2023-06-06T01:32:42.965Z,2.67
2023-06-06T01:37:53.969Z,1.80
2023-06-06T01:42:58.480Z,1.98
2023-06-06T01:48:02.533Z,1.88
2023-06-06T01:53:06.950Z,1.55
2023-06-06T01:58:11.319Z,1.50
2023-06-06T02:03:13.861Z,1.50
2023-06-06T02:08:17.673Z,1.50
2023-06-06T02:13:20.024Z,1.23
2023-06-06T02:18:23.133Z,1.23
2023-06-06T02:23:47.056Z,1.33
2023-06-06T02:28:49.401Z,1.40
2023-06-06T02:33:51.925Z,1.02
2023-06-06T02:38:55.538Z,1.30
2023-06-06T02:43:58.482Z,1.55
2023-06-06T02:49:01.601Z,1.20
2023-06-06T02:54:04.632Z,1.30
2023-06-06T02:59:11.145Z,1.88
2023-06-06T03:04:14.857Z,1.42
2023-06-06T03:09:21.088Z,1.30
2023-06-06T03:14:23.832Z,1.02
2023-06-06T03:19:26.903Z,1.10
2023-06-06T03:29:33.631Z,1.65
2023-06-06T03:34:37.402Z,1.50
2023-06-06T03:39:41.056Z,1.10
2023-06-06T03:44:46.052Z,1.30
2023-06-06T03:49:49.445Z,1.50
2023-06-06T03:54:53.054Z,1.45
2023-06-06T03:59:55.596Z,1.30
2023-06-06T04:05:02.620Z,1.10
2023-06-06T04:10:07.623Z,1.20
2023-06-06T04:15:13.289Z,1.50
2023-06-06T04:20:16.701Z,1.67
2023-06-06T04:25:20.828Z,1.23
2023-06-06T04:30:26.935Z,1.20
2023-06-06T04:35:30.393Z,1.23
2023-06-06T04:40:47.748Z,1.10
2023-06-06T04:45:59.467Z,1.10
2023-06-06T04:51:02.602Z,1.88
2023-06-06T04:56:07.560Z,1.30
2023-06-06T05:01:12.478Z,1.30
2023-06-06T05:06:15.781Z,1.27
2023-06-06T05:11:20.637Z,1.10
2023-06-06T05:16:23.928Z,1.25
2023-06-06T05:21:27.658Z,1.52
2023-06-06T05:26:32.288Z,0.90
2023-06-06T05:31:38.347Z,1.13
2023-06-06T05:36:45.074Z,3.60
2023-06-06T05:41:52.187Z,1.00
2023-06-06T05:46:57.913Z,1.13
2023-06-06T05:52:02.618Z,1.20
2023-06-06T05:57:19.240Z,1.20
2023-06-06T06:02:24.277Z,1.20
2023-06-06T06:07:29.618Z,1.10
2023-06-06T06:12:32.102Z,1.35
2023-06-06T06:17:35.867Z,1.15
2023-06-06T06:22:41.666Z,1.30
2023-06-06T06:27:48.804Z,1.10
2023-06-06T06:32:52.264Z,1.70
2023-06-06T06:37:55.724Z,1.42
2023-06-06T06:42:58.129Z,1.13
2023-06-06T06:48:10.187Z,1.20
2023-06-06T06:53:15.600Z,1.52
2023-06-06T06:58:27.229Z,1.40
2023-06-06T07:03:31.337Z,1.00
2023-06-06T07:08:35.161Z,2.05
2023-06-06T07:13:37.572Z,2.00
2023-06-06T07:18:42.129Z,1.65
2023-06-06T07:23:44.517Z,1.38
2023-06-06T07:28:48.418Z,0.80
2023-06-06T07:33:51.870Z,1.15
2023-06-06T07:38:55.531Z,0.90
2023-06-06T07:49:07.742Z,1.73
2023-06-06T07:54:12.889Z,1.80
2023-06-06T07:59:19.260Z,1.02
2023-06-06T08:04:34.725Z,1.50
2023-06-06T08:09:38.703Z,1.00
2023-06-06T08:14:42.854Z,1.30
2023-06-06T08:19:45.274Z,0.98
2023-06-06T08:25:13.956Z,1.00
2023-06-06T08:30:21.879Z,1.25
2023-06-06T08:35:26.648Z,10.40
2023-06-06T08:40:33.629Z,1.35
2023-06-06T08:45:41.324Z,1.73
2023-06-06T08:50:45.026Z,1.13
2023-06-06T08:55:48.716Z,1.40
2023-06-06T09:00:51.886Z,1.02
2023-06-06T09:05:57.752Z,1.10
2023-06-06T09:11:04.835Z,1.15
2023-06-06T09:16:09.736Z,0.88
2023-06-06T09:21:14.498Z,1.08
2023-06-06T09:26:21.978Z,1.20
2023-06-06T09:31:34.300Z,0.95
2023-06-06T09:36:39.648Z,1.40
2023-06-06T09:41:43.863Z,1.38
2023-06-06T09:51:49.861Z,1.08
2023-06-06T09:56:58.506Z,1.05
2023-06-06T10:02:09.476Z,1.02
2023-06-06T10:07:14.455Z,1.10
2023-06-06T10:12:18.372Z,1.15
2023-06-06T10:17:21.473Z,1.40
2023-06-06T10:22:25.760Z,1.00
2023-06-06T10:27:40.746Z,0.95
2023-06-06T10:33:04.176Z,1.00
2023-06-06T10:43:33.281Z,1.30
2023-06-06T10:48:39.590Z,2.70
2023-06-06T10:53:43.264Z,1.38
2023-06-06T10:58:48.071Z,1.25
2023-06-06T11:03:54.001Z,0.93
2023-06-06T11:09:02.592Z,1.05
2023-06-06T11:14:09.586Z,1.05
2023-06-06T11:19:17.632Z,1.30
2023-06-06T11:24:21.285Z,1.40
2023-06-06T11:29:25.024Z,1.90
2023-06-06T11:34:29.704Z,1.80
2023-06-06T11:39:32.682Z,1.67
2023-06-06T11:45:28.397Z,3.78
2023-06-06T11:50:31.711Z,2.88
2023-06-06T12:01:17.739Z,1.20
2023-06-06T12:06:25.806Z,1.60
2023-06-06T12:11:31.917Z,1.42
2023-06-06T12:16:35.930Z,1.42
2023-06-06T12:27:04.808Z,1.33
2023-06-06T12:32:16.819Z,1.27
2023-06-06T12:37:20.145Z,1.50
2023-06-06T12:42:26.731Z,1.08
2023-06-06T12:47:30.115Z,1.20
2023-06-06T12:52:32.838Z,1.52
2023-06-06T12:57:35.670Z,1.17
2023-06-06T13:02:43.853Z,1.60
2023-06-06T13:07:56.782Z,1.73
2023-06-06T13:12:59.363Z,1.35
2023-06-06T13:18:02.728Z,1.38
2023-06-06T13:23:07.130Z,1.30
2023-06-06T13:28:10.448Z,1.90
2023-06-06T13:33:13.662Z,1.70
2023-06-06T13:38:25.293Z,1.40
2023-06-06T13:43:28.228Z,1.33
2023-06-06T13:48:32.471Z,1.10
2023-06-06T13:53:35.531Z,3.65
2023-06-06T13:58:50.577Z,1.30
2023-06-06T14:03:55.274Z,1.50
2023-06-06T14:08:58.061Z,1.40
2023-06-06T14:14:02.262Z,1.70
2023-06-06T14:19:06.081Z,1.70
2023-06-06T14:24:10.271Z,1.80
2023-06-06T14:29:13.193Z,1.63
2023-06-06T14:34:16.341Z,1.30
2023-06-06T14:39:19.236Z,1.50
2023-06-06T14:44:24.527Z,1.13
2023-06-06T14:49:27.691Z,1.50
2023-06-06T14:54:31.847Z,1.50
2023-06-06T15:04:37.630Z,1.70
2023-06-06T15:09:40.147Z,1.70
2023-06-06T15:14:43.578Z,1.67
2023-06-06T15:19:46.348Z,1.90
2023-06-06T15:24:49.842Z,1.98
2023-06-06T15:29:56.753Z,1.88
2023-06-06T15:35:00.163Z,1.40
2023-06-06T15:40:04.171Z,1.33
2023-06-06T15:45:07.596Z,1.77
2023-06-06T15:50:12.347Z,1.85
2023-06-06T15:55:17.944Z,2.35
2023-06-06T16:00:23.945Z,6.07
2023-06-06T16:05:27.673Z,3.47
2023-06-06T16:10:31.012Z,2.80
2023-06-06T16:15:34.080Z,2.72
2023-06-06T16:20:36.991Z,6.53
2023-06-06T16:25:39.444Z,4.55
2023-06-06T16:30:41.873Z,3.25
2023-06-06T16:35:44.420Z,6.13
2023-06-06T16:40:47.006Z,9.30
2023-06-06T16:45:49.421Z,11.93
2023-06-06T16:50:52.273Z,6.63
2023-06-06T16:55:56.075Z,5.95
2023-06-06T17:00:59.012Z,5.68
2023-06-06T17:06:01.931Z,7.20
2023-06-06T17:11:04.383Z,6.13
2023-06-06T17:16:08.300Z,4.95
2023-06-06T17:21:11.417Z,6.18
2023-06-06T17:26:14.352Z,6.80
2023-06-06T17:31:17.105Z,7.97
2023-06-06T17:36:19.790Z,8.32
2023-06-06T17:41:22.824Z,7.80
2023-06-06T17:46:26.475Z,8.32
2023-06-06T17:51:29.038Z,7.25
2023-06-06T17:56:33.994Z,7.22
2023-06-06T18:01:37.117Z,5.72
2023-06-06T18:06:40.069Z,5.88
2023-06-06T18:11:44.447Z,5.50
2023-06-06T18:16:47.256Z,5.10
2023-06-06T18:21:50.090Z,5.47
2023-06-06T18:26:52.554Z,6.60
2023-06-06T18:31:56.722Z,5.10
2023-06-06T18:36:59.227Z,5.65
2023-06-06T18:42:05.070Z,5.78
2023-06-06T18:47:07.854Z,6.20
2023-06-06T18:52:10.454Z,5.97
2023-06-06T18:57:15.691Z,6.35
2023-06-06T19:02:18.552Z,5.30
2023-06-06T19:07:21.484Z,4.95
2023-06-06T19:12:34.619Z,5.45
2023-06-06T19:17:42.512Z,5.05
2023-06-06T19:22:46.242Z,4.35
2023-06-06T19:27:48.902Z,3.75
2023-06-06T19:32:51.506Z,4.35
2023-06-06T19:37:54.434Z,4.18
2023-06-06T19:42:58.091Z,5.35
2023-06-06T19:48:00.584Z,5.38
2023-06-06T19:53:04.169Z,5.03
2023-06-06T19:58:06.967Z,4.35
2023-06-06T20:03:09.457Z,5.47
2023-06-06T20:08:12.542Z,5.03
2023-06-06T20:13:15.405Z,4.80
2023-06-06T20:18:17.966Z,3.35
2023-06-06T20:23:20.970Z,3.80
2023-06-06T20:28:23.894Z,4.22
2023-06-06T20:33:26.665Z,4.25
2023-06-06T20:38:29.769Z,3.78
2023-06-06T20:43:35.932Z,3.83
2023-06-06T20:48:38.983Z,3.58
2023-06-06T20:53:41.867Z,2.83
2023-06-06T20:58:44.851Z,2.90
2023-06-06T21:03:47.762Z,2.80
2023-06-06T21:08:50.673Z,3.45
2023-06-06T21:13:53.648Z,4.25
2023-06-06T21:18:56.061Z,2.90
2023-06-06T21:23:58.586Z,4.22
2023-06-06T21:29:02.629Z,3.90
2023-06-06T21:34:06.085Z,3.92
2023-06-06T21:39:09.387Z,3.63
2023-06-06T21:44:12.194Z,3.53
2023-06-06T21:49:14.912Z,3.40
2023-06-06T21:54:17.321Z,3.20
2023-06-06T21:59:21.324Z,3.20
2023-06-06T22:04:23.860Z,3.05
2023-06-06T22:09:26.609Z,2.17
2023-06-06T22:14:29.580Z,2.35
2023-06-06T22:19:31.956Z,2.67
2023-06-06T22:24:34.801Z,2.40
2023-06-06T22:29:37.709Z,3.20
2023-06-06T22:34:40.068Z,2.35
2023-06-06T22:39:44.448Z,2.47
2023-06-06T22:44:47.525Z,2.47
2023-06-06T22:49:51.600Z,2.38
2023-06-06T22:54:54.019Z,2.58
2023-06-06T22:59:57.021Z,2.80
2023-06-06T23:04:59.458Z,3.50
2023-06-06T23:10:02.786Z,2.70
2023-06-06T23:15:07.132Z,3.10
2023-06-06T23:20:14.382Z,3.42
2023-06-06T23:25:17.156Z,3.17
2023-06-06T23:30:20.212Z,2.45
2023-06-06T23:35:23.381Z,2.70
2023-06-06T23:40:25.848Z,2.55
2023-06-06T23:45:29.310Z,2.50
2023-06-06T23:50:33.256Z,2.65
2023-06-06T23:55:37.480Z,2.22
